Jacksonville Naval Air Station Jacksonville US
ICAO: KNIP
IATA: NIP
Category: Medium
Scheduled Services: No

Elevation: 21 ft
TransAlt. 18000 ft.

Airport Communications:
APP/DEP:123.8
ATIS:28.1
CLNC DEL:134.775
GND:128.6
ATCOM:672.3
NAVY JAX OPS:31.02
PMSV METRO:34.35
TWR:120

KNIP Zoom In..

Runways:

(A) RW 10 length 8002 ft width 200 ft
---- / hdg 95

(B) RW 14 length 5980 ft width 200 ft
---- / hdg 141

(C) RW 28 length 8002 ft width 200 ft
---- / hdg 275

(D) RW 32 length 5980 ft width 200 ft
---- / hdg 321

Location; KNIP
Day. 24 / Time. 07.53 Zulu
* Altimeter: 30.08
* Temperature: 25° c. 77°f.
* Wind from: 160° Speed 05 kn.
Dewpoint: 22° c.
Visibility: 10 Statute Miles.
Clouds: Scattered 4500 ft.
Clouds: Broken 7000 ft.
Clouds: Broken 22000 ft.

KNIP 240753Z 16005KT 10SM SCT045 BKN070 BKN220 25/22 A3008 RMK AO2 SLP180 T02500217 $


Wind From 160°
Speed 05 kn.

 
 
jpsmedia.com for Web Design SOUNDCLOUD worldairports.se 2018   terms of use